Time;durP1;ratioP1;P1;durP2;ratioP2;P2;SDS_P1;SDS_P2;PMS_P1;PMS_P2;Temp;Humidity;BMP_temperature;BMP_pressure;BME280_temperature;BME280_humidity;BME280_pressure;Samples;Min_cycle;Max_cycle;Signal;HPM_P1;HPM_P2
2023/12/06 00:01:32;;;;;;;1.40;1.40;;;2.00;99.90;;;;;;5030312;28;20033;-73
2023/12/06 00:03:58;;;;;;;1.50;1.40;;;2.00;99.90;;;;;;5033407;28;20095;-73
2023/12/06 00:06:24;;;;;;;1.60;1.50;;;2.10;99.90;;;;;;5026630;28;20723;-74
2023/12/06 00:08:52;;;;;;;1.80;1.70;;;2.10;99.90;;;;;;5027290;28;20109;-73
2023/12/06 00:11:18;;;;;;;1.73;1.63;;;2.00;99.90;;;;;;5028852;28;20037;-74
2023/12/06 00:13:44;;;;;;;1.38;1.38;;;2.10;99.90;;;;;;5034146;28;20088;-74
2023/12/06 00:16:10;;;;;;;1.70;1.60;;;2.00;99.90;;;;;;5029938;28;20407;-74
2023/12/06 00:18:35;;;;;;;1.75;1.65;;;2.00;99.90;;;;;;5030244;28;20025;-74
2023/12/06 00:21:01;;;;;;;1.63;1.52;;;2.00;99.90;;;;;;5032696;28;20052;-73
2023/12/06 00:23:26;;;;;;;1.40;1.40;;;2.00;99.90;;;;;;5032753;28;20036;-75
2023/12/06 00:25:52;;;;;;;1.70;1.60;;;2.00;99.90;;;;;;5030443;28;20041;-74
2023/12/06 00:28:18;;;;;;;1.90;1.65;;;2.00;99.90;;;;;;5027948;28;20033;-74
2023/12/06 00:30:43;;;;;;;1.77;1.40;;;1.90;99.90;;;;;;5025402;28;20045;-74
2023/12/06 00:33:09;;;;;;;1.40;1.30;;;2.00;99.90;;;;;;5030111;28;20029;-74
2023/12/06 00:35:35;;;;;;;1.58;1.48;;;2.00;99.90;;;;;;5030436;28;20032;-73
2023/12/06 00:38:00;;;;;;;1.60;1.55;;;2.00;99.90;;;;;;5035128;28;20486;-73
2023/12/06 00:40:26;;;;;;;1.50;1.50;;;1.90;99.90;;;;;;5030401;28;20063;-74
2023/12/06 00:42:52;;;;;;;1.75;1.65;;;1.90;99.90;;;;;;5034302;28;20036;-73
2023/12/06 00:45:17;;;;;;;1.95;1.75;;;1.90;99.90;;;;;;5030672;28;20065;-73
2023/12/06 00:47:43;;;;;;;2.08;1.88;;;1.90;99.90;;;;;;5033802;28;20123;-75
2023/12/06 00:50:09;;;;;;;1.58;1.48;;;2.00;99.90;;;;;;5036662;28;20033;-76
2023/12/06 00:52:34;;;;;;;1.70;1.60;;;1.90;99.90;;;;;;5035263;28;20029;-76
2023/12/06 00:55:00;;;;;;;1.60;1.50;;;1.90;99.90;;;;;;5036270;28;20026;-75
2023/12/06 00:57:26;;;;;;;1.80;1.70;;;1.90;99.90;;;;;;5033827;28;20028;-75
2023/12/06 00:59:51;;;;;;;1.40;1.40;;;1.90;99.90;;;;;;5034416;28;20033;-75
2023/12/06 01:02:17;;;;;;;1.85;1.75;;;1.90;99.90;;;;;;5033403;28;20036;-74
2023/12/06 01:04:45;;;;;;;1.70;1.45;;;1.90;99.90;;;;;;5034936;28;20091;-74
2023/12/06 01:07:11;;;;;;;2.23;1.30;;;1.90;99.90;;;;;;5031991;28;20490;-74
2023/12/06 01:09:37;;;;;;;1.75;1.65;;;1.90;99.90;;;;;;5033582;28;20295;-74
2023/12/06 01:12:02;;;;;;;1.58;1.42;;;1.90;99.90;;;;;;5029380;28;20030;-74
2023/12/06 01:14:36;;;;;;;1.50;1.42;;;1.90;99.90;;;;;;5029927;28;20017;-75
2023/12/06 01:17:11;;;;;;;1.33;1.33;;;1.90;99.90;;;;;;5031186;28;20034;-74
2023/12/06 01:20:17;;;;;;;1.52;1.42;;;1.90;99.90;;;;;;5036201;28;20044;-74
2023/12/06 01:22:43;;;;;;;1.58;1.58;;;1.90;99.90;;;;;;5040755;28;20029;-75
2023/12/06 01:25:21;;;;;;;1.13;1.13;;;1.90;99.90;;;;;;5034784;28;20058;-73
2023/12/06 01:27:47;;;;;;;1.40;1.40;;;1.90;99.90;;;;;;5035055;28;20069;-74
2023/12/06 01:30:15;;;;;;;1.35;1.33;;;1.90;99.90;;;;;;5035983;28;20057;-73
2023/12/06 01:32:53;;;;;;;2.60;1.38;;;1.90;99.90;;;;;;5035944;28;20284;-73
2023/12/06 01:35:24;;;;;;;1.35;1.25;;;1.80;99.90;;;;;;5032998;28;20078;-74
2023/12/06 01:37:56;;;;;;;1.58;1.48;;;1.90;99.90;;;;;;5032240;28;20026;-74
2023/12/06 01:40:33;;;;;;;1.63;1.52;;;1.90;99.90;;;;;;5036542;28;20061;-74
2023/12/06 01:42:58;;;;;;;1.10;1.10;;;1.80;99.90;;;;;;5032676;28;20502;-75
2023/12/06 01:45:24;;;;;;;3.17;1.67;;;1.80;99.90;;;;;;5036733;28;20099;-73
2023/12/06 01:47:52;;;;;;;1.17;1.17;;;1.80;99.90;;;;;;5032185;28;20025;-74
2023/12/06 01:50:19;;;;;;;2.95;1.75;;;1.90;99.90;;;;;;5029904;28;20025;-73
2023/12/06 01:52:44;;;;;;;1.50;1.40;;;1.90;99.90;;;;;;5031263;28;20026;-73
2023/12/06 01:55:11;;;;;;;1.63;1.52;;;1.90;99.90;;;;;;5031729;28;20053;-74
2023/12/06 01:57:37;;;;;;;1.38;1.38;;;1.90;99.90;;;;;;5033762;28;20052;-73
2023/12/06 02:00:03;;;;;;;1.40;1.30;;;1.90;99.90;;;;;;5033275;28;20068;-72
2023/12/06 02:02:32;;;;;;;1.60;1.50;;;1.90;99.90;;;;;;5032703;28;20045;-73
2023/12/06 02:05:04;;;;;;;1.30;1.30;;;1.90;99.90;;;;;;5040489;28;20029;-73
2023/12/06 02:07:52;;;;;;;1.80;1.70;;;1.90;99.90;;;;;;5031168;28;20046;-72
2023/12/06 02:10:18;;;;;;;1.40;1.30;;;1.90;99.90;;;;;;5033953;28;20072;-72
2023/12/06 02:12:43;;;;;;;1.25;1.25;;;1.90;99.90;;;;;;5031733;28;20824;-72
2023/12/06 02:15:12;;;;;;;1.30;1.30;;;1.90;99.90;;;;;;5034171;28;20112;-73
2023/12/06 02:17:43;;;;;;;1.42;1.42;;;1.90;99.90;;;;;;5030864;28;20037;-73
2023/12/06 02:20:11;;;;;;;1.20;1.10;;;1.90;99.90;;;;;;5028420;28;20057;-73
2023/12/06 02:22:36;;;;;;;3.95;1.70;;;1.90;99.90;;;;;;5030542;28;20037;-73
2023/12/06 02:25:04;;;;;;;1.25;1.25;;;1.90;99.90;;;;;;5024189;28;20041;-72
2023/12/06 02:27:30;;;;;;;1.77;1.67;;;1.90;99.90;;;;;;5033636;28;20029;-72
2023/12/06 02:29:56;;;;;;;1.48;1.42;;;1.90;99.90;;;;;;5032629;28;20414;-71
2023/12/06 02:32:24;;;;;;;1.50;1.40;;;1.90;99.90;;;;;;5033229;28;20531;-73
2023/12/06 02:34:55;;;;;;;1.23;1.23;;;1.90;99.90;;;;;;5038760;28;20022;-75
2023/12/06 02:37:23;;;;;;;1.63;1.40;;;1.90;99.90;;;;;;5036667;28;20060;-74
2023/12/06 02:39:54;;;;;;;2.27;1.57;;;1.90;99.90;;;;;;5035074;28;20029;-74
2023/12/06 02:42:22;;;;;;;1.65;1.45;;;1.90;99.90;;;;;;5040096;28;20047;-74
2023/12/06 02:44:48;;;;;;;1.58;1.48;;;1.90;99.90;;;;;;5032565;28;20807;-74
2023/12/06 02:47:14;;;;;;;1.60;1.50;;;1.90;99.90;;;;;;5033776;28;20060;-74
2023/12/06 02:49:40;;;;;;;1.45;1.42;;;1.90;99.90;;;;;;5034800;28;20029;-73
2023/12/06 02:52:07;;;;;;;1.10;1.10;;;1.90;99.90;;;;;;5032091;28;20063;-72
2023/12/06 02:54:33;;;;;;;1.38;1.35;;;1.90;99.90;;;;;;5027113;28;20360;-74
2023/12/06 02:56:58;;;;;;;1.83;1.73;;;1.90;99.90;;;;;;5031109;28;20037;-73
2023/12/06 02:59:25;;;;;;;1.60;1.50;;;1.90;99.90;;;;;;5029181;28;20033;-74
2023/12/06 03:01:50;;;;;;;1.80;1.70;;;1.90;99.90;;;;;;5028225;28;20042;-73
2023/12/06 03:04:16;;;;;;;1.98;1.80;;;1.90;99.90;;;;;;5033252;28;20044;-73
2023/12/06 03:06:44;;;;;;;1.70;1.60;;;1.90;99.90;;;;;;5033560;28;20049;-74
2023/12/06 03:09:10;;;;;;;1.75;1.65;;;1.90;99.90;;;;;;5027432;28;20367;-73
2023/12/06 03:11:36;;;;;;;1.50;1.40;;;1.90;99.90;;;;;;5029147;28;20029;-70
2023/12/06 03:14:02;;;;;;;1.95;1.70;;;1.90;99.90;;;;;;5034450;28;20067;-73
2023/12/06 03:16:28;;;;;;;1.80;1.67;;;1.90;99.90;;;;;;5034646;28;20021;-73
2023/12/06 03:18:54;;;;;;;2.13;1.40;;;1.90;99.90;;;;;;5030689;28;20149;-71
2023/12/06 03:21:19;;;;;;;1.60;1.50;;;1.90;99.90;;;;;;5039434;28;20510;-71
2023/12/06 03:23:45;;;;;;;2.83;1.73;;;1.90;99.90;;;;;;5025603;28;20041;-71
2023/12/06 03:26:11;;;;;;;1.45;1.38;;;1.90;99.90;;;;;;5032954;28;20040;-72
2023/12/06 03:29:00;;;;;;;1.55;1.55;;;1.90;99.90;;;;;;5033066;28;20044;-72
2023/12/06 03:31:26;;;;;;;1.70;1.60;;;1.90;99.90;;;;;;5021425;28;20089;-71
2023/12/06 03:33:51;;;;;;;1.70;1.60;;;1.80;99.90;;;;;;5030366;28;20064;-70
2023/12/06 03:36:18;;;;;;;2.05;1.90;;;1.90;99.90;;;;;;5023617;28;20036;-72
2023/12/06 03:38:43;;;;;;;1.55;1.48;;;1.90;99.90;;;;;;5026592;28;20084;-70
2023/12/06 03:41:09;;;;;;;1.65;1.58;;;1.90;99.90;;;;;;5028998;28;20033;-71
2023/12/06 03:43:35;;;;;;;1.90;1.80;;;1.90;99.90;;;;;;5025636;28;20055;-71
2023/12/06 03:46:01;;;;;;;1.50;1.40;;;1.90;99.90;;;;;;5025762;28;20506;-71
2023/12/06 03:48:26;;;;;;;3.03;1.88;;;1.90;99.90;;;;;;5024563;28;20045;-72
2023/12/06 03:50:52;;;;;;;1.42;1.33;;;1.90;99.90;;;;;;5020932;28;20021;-71
2023/12/06 03:53:18;;;;;;;1.70;1.60;;;1.90;99.90;;;;;;5023011;28;20029;-71
2023/12/06 03:55:43;;;;;;;2.17;2.08;;;1.90;99.90;;;;;;5026327;28;20037;-71
2023/12/06 03:58:09;;;;;;;2.17;1.98;;;1.90;99.90;;;;;;5024251;28;20053;-71
2023/12/06 04:00:35;;;;;;;1.90;1.55;;;1.90;99.90;;;;;;5022266;28;20374;-70
2023/12/06 04:03:00;;;;;;;2.40;2.20;;;1.90;99.90;;;;;;5023978;28;20105;-73
2023/12/06 04:05:26;;;;;;;1.90;1.80;;;1.90;99.90;;;;;;5023174;28;20270;-70
2023/12/06 04:07:52;;;;;;;2.22;2.05;;;2.00;99.90;;;;;;5021897;28;20026;-70
2023/12/06 04:10:17;;;;;;;2.55;2.35;;;1.90;99.90;;;;;;5019646;28;20326;-71
2023/12/06 04:12:43;;;;;;;1.45;1.45;;;2.00;99.90;;;;;;5026655;28;20037;-71
2023/12/06 04:15:09;;;;;;;3.05;2.08;;;1.90;99.90;;;;;;5027552;28;20029;-70
2023/12/06 04:17:34;;;;;;;2.42;1.90;;;1.90;99.90;;;;;;5027658;28;20478;-71
2023/12/06 04:20:00;;;;;;;2.22;1.90;;;1.90;99.90;;;;;;5026794;28;20422;-71
2023/12/06 04:22:26;;;;;;;2.30;2.10;;;1.90;99.90;;;;;;5024291;28;20029;-71
2023/12/06 04:24:53;;;;;;;2.17;2.08;;;2.00;99.90;;;;;;5024214;28;20653;-70
2023/12/06 04:27:18;;;;;;;2.08;1.98;;;1.90;99.90;;;;;;5023574;28;20036;-71
2023/12/06 04:29:44;;;;;;;2.33;2.22;;;1.90;99.90;;;;;;5025555;28;20410;-70
2023/12/06 04:32:10;;;;;;;2.22;2.05;;;1.90;99.90;;;;;;5026443;28;20041;-70
2023/12/06 04:34:46;;;;;;;2.28;1.90;;;2.00;99.90;;;;;;5024731;28;20030;-70
2023/12/06 04:37:11;;;;;;;1.67;1.58;;;1.90;99.90;;;;;;5022285;28;20393;-71
2023/12/06 04:39:37;;;;;;;1.83;1.73;;;1.90;99.90;;;;;;5022045;28;20033;-72
2023/12/06 04:42:03;;;;;;;2.42;2.03;;;1.90;99.90;;;;;;5024795;28;20445;-71
2023/12/06 04:44:29;;;;;;;2.00;1.85;;;2.00;99.90;;;;;;5023582;28;20402;-73
2023/12/06 04:47:01;;;;;;;2.58;2.38;;;1.90;99.90;;;;;;5022919;28;20033;-73
2023/12/06 04:49:30;;;;;;;3.25;1.90;;;2.00;99.90;;;;;;5024069;28;20525;-72
2023/12/06 04:51:58;;;;;;;;;;;2.00;99.90;;;;;;5026757;28;20060;-73
2023/12/06 04:54:26;;;;;;;1.80;1.70;;;1.90;99.90;;;;;;5028242;28;19952;-73
2023/12/06 04:56:52;;;;;;;1.88;1.65;;;2.00;99.90;;;;;;5026475;28;20048;-73
2023/12/06 04:59:19;;;;;;;5.53;1.73;;;2.00;99.90;;;;;;5028628;28;20052;-72
2023/12/06 05:01:48;;;;;;;2.50;2.33;;;1.90;99.90;;;;;;5020001;28;20051;-70
2023/12/06 05:04:14;;;;;;;;;;;2.00;99.90;;;;;;5031283;28;20049;-71
2023/12/06 05:06:48;;;;;;;1.40;1.35;;;1.90;99.90;;;;;;5031640;28;19909;-71
2023/12/06 05:09:17;;;;;;;1.75;1.65;;;2.00;99.90;;;;;;5026303;28;20364;-72
2023/12/06 05:11:46;;;;;;;2.53;2.33;;;2.00;99.90;;;;;;5039981;28;20362;-71
2023/12/06 05:14:13;;;;;;;2.10;1.98;;;2.00;99.90;;;;;;5026145;28;20028;-72
2023/12/06 05:16:39;;;;;;;1.95;1.85;;;2.00;99.90;;;;;;5028609;28;20557;-71
2023/12/06 05:19:06;;;;;;;2.55;2.10;;;2.00;99.90;;;;;;5021747;28;20048;-72
2023/12/06 05:21:32;;;;;;;1.67;1.50;;;2.00;99.90;;;;;;5030289;28;20051;-72
2023/12/06 05:24:08;;;;;;;2.10;2.00;;;2.00;99.90;;;;;;5017905;28;20053;-71
2023/12/06 05:26:34;;;;;;;2.08;1.83;;;2.00;99.90;;;;;;5019741;28;20633;-71
2023/12/06 05:29:00;;;;;;;4.65;1.23;;;2.00;99.90;;;;;;5016979;28;20037;-71
2023/12/06 05:31:26;;;;;;;2.60;2.00;;;2.00;99.90;;;;;;5023266;28;20046;-71
2023/12/06 05:33:52;;;;;;;3.20;1.65;;;2.00;99.90;;;;;;5021237;28;20038;-72
2023/12/06 05:36:27;;;;;;;2.20;2.10;;;2.00;99.90;;;;;;5021502;28;20088;-72
2023/12/06 05:38:52;;;;;;;2.10;1.98;;;2.00;99.90;;;;;;5021090;28;20026;-72
2023/12/06 05:41:18;;;;;;;2.00;1.90;;;2.00;99.90;;;;;;5024572;28;20087;-70
2023/12/06 05:43:44;;;;;;;1.88;1.77;;;2.00;99.90;;;;;;5026210;28;20445;-70
2023/12/06 05:46:09;;;;;;;2.50;2.40;;;2.00;99.90;;;;;;5023534;28;20069;-70
2023/12/06 05:48:35;;;;;;;2.20;2.00;;;2.00;99.90;;;;;;5022478;28;20389;-71
2023/12/06 05:51:01;;;;;;;1.80;1.70;;;2.10;99.90;;;;;;5020037;28;20548;-72
2023/12/06 05:53:30;;;;;;;1.92;1.80;;;2.00;99.90;;;;;;5019506;28;20037;-73
2023/12/06 05:55:59;;;;;;;1.90;1.80;;;2.00;99.90;;;;;;5016234;28;20040;-71
2023/12/06 05:58:34;;;;;;;2.00;1.90;;;2.00;99.90;;;;;;5020832;28;20509;-71
2023/12/06 06:01:01;;;;;;;2.20;1.83;;;2.10;99.90;;;;;;5009914;28;20034;-71
2023/12/06 06:03:27;;;;;;;2.38;2.17;;;2.00;99.90;;;;;;5016602;28;20026;-73
2023/12/06 06:05:52;;;;;;;1.92;1.77;;;2.10;99.90;;;;;;5021849;28;20079;-72
2023/12/06 06:08:18;;;;;;;3.85;1.88;;;2.10;99.90;;;;;;5025510;28;20536;-70
2023/12/06 06:10:44;;;;;;;1.73;1.63;;;2.10;99.90;;;;;;5028715;28;20030;-71
2023/12/06 06:13:10;;;;;;;2.47;2.00;;;2.00;99.90;;;;;;5025116;28;20391;-71
2023/12/06 06:15:39;;;;;;;4.13;2.03;;;2.10;99.90;;;;;;5028963;28;20032;-71
2023/12/06 06:18:08;;;;;;;1.70;1.60;;;2.10;99.90;;;;;;5028229;28;20045;-70
2023/12/06 06:20:51;;;;;;;4.32;2.50;;;2.10;99.90;;;;;;5024446;28;20041;-71
2023/12/06 06:23:17;;;;;;;4.55;1.85;;;2.10;99.90;;;;;;5025458;28;20487;-72
2023/12/06 06:25:42;;;;;;;3.50;2.28;;;2.10;99.90;;;;;;5027720;28;20031;-71
2023/12/06 06:28:11;;;;;;;2.17;2.08;;;2.10;99.90;;;;;;5027101;28;20080;-71
2023/12/06 06:34:58;;;;;;;2.00;1.90;;;2.10;99.90;;;;;;4931388;29;20066;-71
2023/12/06 06:37:52;;;;;;;2.58;2.30;;;2.00;99.90;;;;;;4866190;29;20129;-71
2023/12/06 06:40:17;;;;;;;1.80;1.70;;;2.10;99.90;;;;;;4798921;29;20046;-71
2023/12/06 06:42:43;;;;;;;2.17;2.00;;;2.10;99.90;;;;;;4854554;29;20812;-70
2023/12/06 06:45:13;;;;;;;2.78;2.00;;;2.10;99.90;;;;;;4956978;28;20050;-70
2023/12/06 06:48:05;;;;;;;2.85;1.98;;;2.10;99.90;;;;;;5041233;28;20137;-71
2023/12/06 06:50:35;;;;;;;1.35;1.35;;;2.10;99.90;;;;;;5024402;28;20033;-70
2023/12/06 06:53:02;;;;;;;1.90;1.80;;;2.10;99.90;;;;;;5024569;28;20497;-70
2023/12/06 06:55:31;;;;;;;1.77;1.67;;;2.10;99.90;;;;;;5041998;28;20058;-71
2023/12/06 06:57:58;;;;;;;2.92;2.20;;;2.10;99.90;;;;;;5025451;28;20117;-71
2023/12/06 07:00:27;;;;;;;1.92;1.83;;;2.10;99.90;;;;;;5021397;28;20025;-71
2023/12/06 07:03:17;;;;;;;;;;;2.10;99.90;;;;;;5026507;28;20076;-72
2023/12/06 07:05:45;;;;;;;1.85;1.75;;;2.10;99.90;;;;;;5019077;28;19905;-71
2023/12/06 07:08:17;;;;;;;1.98;1.88;;;2.10;99.90;;;;;;5024731;28;20037;-71
2023/12/06 07:11:01;;;;;;;1.45;1.45;;;2.10;99.90;;;;;;5019630;28;20025;-70
2023/12/06 07:13:37;;;;;;;1.52;1.23;;;2.10;99.90;;;;;;5037393;28;20018;-72
2023/12/06 07:16:11;;;;;;;3.20;2.05;;;2.10;99.90;;;;;;5021376;28;20072;-72
2023/12/06 07:18:44;;;;;;;2.85;2.22;;;2.10;99.90;;;;;;5018225;28;20021;-70
2023/12/06 07:21:13;;;;;;;1.85;1.75;;;2.10;99.90;;;;;;5025826;28;20099;-72
2023/12/06 07:23:39;;;;;;;;;;;2.10;99.90;;;;;;5028641;28;20026;-70
2023/12/06 07:26:26;;;;;;;10.23;2.35;;;2.10;99.90;;;;;;5018853;28;19917;-72
2023/12/06 07:28:52;;;;;;;1.83;1.73;;;2.10;99.90;;;;;;5019072;28;20069;-72
2023/12/06 07:31:21;;;;;;;1.70;1.60;;;2.10;99.90;;;;;;5023691;28;20039;-72
2023/12/06 07:33:53;;;;;;;1.10;1.08;;;2.10;99.90;;;;;;5019061;28;20030;-70
2023/12/06 07:36:37;;;;;;;1.63;1.52;;;2.10;99.90;;;;;;5020378;28;20077;-71
2023/12/06 07:39:14;;;;;;;2.10;2.00;;;2.20;99.90;;;;;;5024279;28;20053;-70
2023/12/06 07:41:44;;;;;;;4.18;2.10;;;2.20;99.90;;;;;;5017726;28;20030;-71
2023/12/06 07:44:20;;;;;;;2.05;1.95;;;2.20;99.90;;;;;;5015380;28;20249;-70
2023/12/06 07:46:49;;;;;;;2.58;1.95;;;2.10;99.90;;;;;;5021398;28;20042;-70
2023/12/06 07:49:17;;;;;;;;;;;2.20;99.90;;;;;;5018742;28;20112;-71
2023/12/06 07:51:52;;;;;;;2.42;1.83;;;2.20;99.90;;;;;;5017978;28;19913;-70
2023/12/06 07:54:37;;;;;;;1.73;1.63;;;2.20;99.90;;;;;;5021095;28;20037;-72
2023/12/06 07:57:03;;;;;;;1.27;1.27;;;2.20;99.90;;;;;;5021242;28;20103;-71
2023/12/06 07:59:35;;;;;;;2.15;2.03;;;2.20;99.90;;;;;;5017362;28;20136;-72
2023/12/06 08:02:42;;;;;;;1.90;1.80;;;2.20;99.90;;;;;;4986693;28;20392;-72
2023/12/06 08:12:20;;;;;;;2.13;1.90;;;2.20;99.90;;;;;;5030022;28;20037;-70
2023/12/06 08:14:49;;;;;;;2.00;1.80;;;2.20;99.90;;;;;;5013699;28;20387;-70
2023/12/06 08:17:24;;;;;;;;;;;2.20;99.90;;;;;;5022843;28;20026;-71
2023/12/06 08:19:49;;;;;;;1.73;1.63;;;2.20;99.90;;;;;;5022567;28;19921;-71
2023/12/06 08:22:15;;;;;;;2.30;2.10;;;2.20;99.90;;;;;;5021567;28;20030;-70
2023/12/06 08:24:41;;;;;;;1.77;1.67;;;2.20;99.90;;;;;;5015982;28;20030;-70
2023/12/06 08:27:07;;;;;;;1.35;1.35;;;2.30;99.90;;;;;;5021170;28;20084;-71
2023/12/06 08:29:32;;;;;;;2.17;2.03;;;2.30;99.90;;;;;;5020000;28;20084;-71
2023/12/06 08:31:58;;;;;;;2.03;1.92;;;2.30;99.90;;;;;;5019947;28;20389;-70
2023/12/06 08:34:23;;;;;;;2.40;2.20;;;2.30;99.90;;;;;;5018373;28;20112;-72
2023/12/06 08:36:50;;;;;;;2.45;2.25;;;2.30;99.90;;;;;;5017066;28;20124;-71
2023/12/06 08:39:16;;;;;;;1.90;1.80;;;2.30;99.90;;;;;;5017962;28;20025;-71
2023/12/06 08:41:41;;;;;;;2.05;1.95;;;2.30;99.90;;;;;;5020486;28;20110;-72
2023/12/06 08:44:07;;;;;;;2.33;2.13;;;2.30;99.90;;;;;;5018645;28;20048;-70
2023/12/06 08:46:33;;;;;;;6.50;2.22;;;2.30;99.90;;;;;;5021715;28;20467;-71
2023/12/06 08:48:58;;;;;;;5.43;2.10;;;2.30;99.90;;;;;;5026235;28;20087;-72
2023/12/06 08:51:24;;;;;;;3.45;3.22;;;2.30;99.90;;;;;;5020142;28;20227;-71
2023/12/06 08:53:50;;;;;;;2.22;2.05;;;2.30;99.90;;;;;;5019168;28;20056;-71
2023/12/06 08:56:16;;;;;;;2.08;1.98;;;2.30;99.90;;;;;;5022611;28;20072;-71
2023/12/06 08:58:41;;;;;;;1.98;1.88;;;2.30;99.90;;;;;;5016534;28;20032;-70
2023/12/06 09:01:07;;;;;;;4.32;2.45;;;2.30;99.90;;;;;;5022284;28;20030;-71
2023/12/06 09:03:32;;;;;;;1.88;1.73;;;2.40;99.90;;;;;;5020902;28;20052;-71
2023/12/06 09:05:58;;;;;;;2.47;2.28;;;2.40;99.90;;;;;;5024728;28;20032;-72
2023/12/06 09:08:25;;;;;;;2.20;1.77;;;2.40;99.90;;;;;;5023111;28;20348;-71
2023/12/06 09:10:51;;;;;;;2.08;1.85;;;2.40;99.90;;;;;;5027736;28;20029;-70
2023/12/06 09:13:16;;;;;;;1.50;1.45;;;2.40;99.90;;;;;;5021429;28;20405;-71
2023/12/06 09:15:42;;;;;;;1.83;1.73;;;2.50;99.90;;;;;;5018057;28;20022;-71
2023/12/06 09:18:08;;;;;;;2.35;1.95;;;2.50;99.90;;;;;;5022259;28;20033;-70
2023/12/06 09:20:34;;;;;;;2.10;2.00;;;2.50;99.90;;;;;;5029895;28;20052;-71
2023/12/06 09:23:00;;;;;;;2.28;2.08;;;2.50;99.90;;;;;;5027509;28;20022;-71
2023/12/06 09:25:25;;;;;;;1.42;1.33;;;2.50;99.90;;;;;;5015489;28;20513;-72
2023/12/06 09:27:51;;;;;;;2.20;2.10;;;2.50;99.90;;;;;;5017120;28;20064;-72
2023/12/06 09:30:17;;;;;;;5.43;2.28;;;2.60;99.90;;;;;;5025458;28;20079;-71
2023/12/06 09:32:42;;;;;;;2.03;1.85;;;2.60;99.90;;;;;;5018223;28;20049;-72
2023/12/06 09:35:08;;;;;;;1.77;1.67;;;2.60;99.90;;;;;;5027561;28;20021;-72
2023/12/06 09:37:34;;;;;;;2.08;1.98;;;2.60;99.90;;;;;;5021239;28;20536;-73
2023/12/06 09:40:00;;;;;;;1.50;1.40;;;2.60;99.90;;;;;;5027637;28;20029;-72
2023/12/06 09:42:27;;;;;;;1.95;1.85;;;2.60;99.90;;;;;;5028693;28;20499;-71
2023/12/06 09:44:55;;;;;;;3.42;1.92;;;2.50;99.90;;;;;;5025297;28;20234;-72
2023/12/06 09:47:23;;;;;;;2.80;2.60;;;2.50;99.90;;;;;;5025367;28;20163;-72
2023/12/06 09:49:49;;;;;;;2.10;2.00;;;2.60;99.90;;;;;;5029217;28;20065;-72
2023/12/06 09:52:22;;;;;;;1.92;1.83;;;2.50;99.90;;;;;;5029822;28;20045;-71
2023/12/06 09:54:49;;;;;;;1.90;1.80;;;2.60;99.90;;;;;;5025051;28;20483;-72
2023/12/06 09:57:16;;;;;;;2.15;2.03;;;2.60;99.90;;;;;;5020747;28;20025;-72
2023/12/06 09:59:42;;;;;;;4.10;2.28;;;2.60;99.90;;;;;;5025818;28;20121;-72
2023/12/06 10:02:08;;;;;;;1.95;1.85;;;2.60;99.90;;;;;;5029629;28;20068;-71
2023/12/06 10:04:34;;;;;;;2.38;2.17;;;2.60;99.90;;;;;;5025622;28;20116;-73
2023/12/06 10:07:00;;;;;;;2.60;2.38;;;2.60;99.90;;;;;;5025778;28;20029;-71
2023/12/06 10:09:26;;;;;;;2.05;1.65;;;2.60;99.90;;;;;;5022643;28;20037;-72
2023/12/06 10:11:52;;;;;;;2.45;2.25;;;2.70;99.90;;;;;;5027097;28;20041;-72
2023/12/06 10:14:19;;;;;;;1.98;1.88;;;2.70;99.90;;;;;;5024339;28;20502;-72
2023/12/06 10:16:46;;;;;;;1.73;1.63;;;2.70;99.90;;;;;;5026306;28;20058;-71
2023/12/06 10:19:19;;;;;;;2.45;2.25;;;2.70;99.90;;;;;;5026091;28;20037;-72
2023/12/06 10:21:46;;;;;;;2.55;2.17;;;2.70;99.90;;;;;;5030126;28;20491;-71
2023/12/06 10:24:12;;;;;;;2.00;1.85;;;2.70;99.90;;;;;;5022699;28;20038;-71
2023/12/06 10:26:39;;;;;;;2.05;1.95;;;2.80;99.90;;;;;;5025236;28;20177;-70
2023/12/06 10:29:05;;;;;;;2.83;2.17;;;2.80;99.90;;;;;;5020543;28;20025;-72
2023/12/06 10:31:42;;;;;;;2.47;2.28;;;2.80;99.90;;;;;;5023341;28;20048;-70
2023/12/06 10:34:08;;;;;;;2.65;2.45;;;2.90;99.90;;;;;;5017779;28;20020;-70
2023/12/06 10:36:36;;;;;;;2.35;2.25;;;2.80;99.90;;;;;;5020038;28;20060;-72
2023/12/06 10:39:06;;;;;;;2.10;2.00;;;2.80;99.90;;;;;;5024411;28;20036;-70
2023/12/06 10:41:33;;;;;;;2.65;2.20;;;2.90;99.90;;;;;;5025595;28;20060;-70
2023/12/06 10:44:01;;;;;;;3.88;2.35;;;2.80;99.90;;;;;;5015503;28;20076;-70
2023/12/06 10:46:28;;;;;;;2.00;1.88;;;2.80;99.90;;;;;;5019915;28;20033;-71
2023/12/06 10:48:54;;;;;;;2.70;2.35;;;2.90;99.90;;;;;;5022323;28;20095;-70
2023/12/06 10:51:21;;;;;;;4.13;2.63;;;2.80;99.90;;;;;;5023649;28;20021;-71
2023/12/06 10:53:52;;;;;;;2.38;2.17;;;2.80;99.90;;;;;;5023656;28;20068;-71
2023/12/06 10:56:19;;;;;;;2.35;2.22;;;2.90;99.90;;;;;;5017417;28;20553;-71
2023/12/06 10:58:47;;;;;;;4.82;2.83;;;2.90;99.90;;;;;;5021448;28;20391;-71
2023/12/06 11:01:13;;;;;;;2.90;2.58;;;2.90;99.90;;;;;;5021580;28;20041;-72
2023/12/06 11:03:39;;;;;;;2.40;2.17;;;2.90;99.90;;;;;;5026990;28;20128;-72
2023/12/06 11:06:34;;;;;;;2.67;2.22;;;2.90;99.90;;;;;;5014041;28;20017;-72
2023/12/06 11:09:29;;;;;;;3.00;2.67;;;2.90;99.90;;;;;;5021585;28;20029;-71
2023/12/06 11:12:38;;;;;;;3.50;2.53;;;2.90;99.90;;;;;;5017631;28;20029;-71
2023/12/06 11:15:04;;;;;;;2.83;2.63;;;2.90;99.90;;;;;;5037465;28;20099;-71
2023/12/06 11:17:33;;;;;;;3.80;3.50;;;2.90;99.90;;;;;;5022424;28;20109;-71
2023/12/06 11:19:59;;;;;;;7.35;6.60;;;3.00;99.90;;;;;;5021854;28;20114;-70
2023/12/06 11:22:25;;;;;;;4.60;4.20;;;3.00;99.90;;;;;;5027676;28;20037;-71
2023/12/06 11:24:51;;;;;;;6.43;4.88;;;3.00;99.90;;;;;;5019681;28;20029;-70
2023/12/06 11:27:19;;;;;;;12.95;7.15;;;3.00;99.90;;;;;;5027539;28;20040;-70
2023/12/06 11:29:50;;;;;;;23.43;9.10;;;3.00;99.90;;;;;;5014002;28;20530;-70
2023/12/06 11:32:27;;;;;;;17.40;6.80;;;3.00;99.90;;;;;;5024485;28;20029;-71
2023/12/06 11:35:00;;;;;;;22.58;10.52;;;3.00;99.90;;;;;;5018121;28;20491;-72
2023/12/06 11:37:26;;;;;;;14.50;8.40;;;3.00;99.90;;;;;;5022980;28;20652;-71
2023/12/06 11:40:27;;;;;;;8.43;5.00;;;3.00;99.90;;;;;;5018379;28;20037;-74
2023/12/06 11:43:01;;;;;;;6.05;4.28;;;3.00;99.90;;;;;;4969700;28;20039;-73
2023/12/06 11:45:30;;;;;;;9.27;6.80;;;3.00;99.90;;;;;;5017410;28;20077;-71
2023/12/06 11:48:02;;;;;;;24.23;17.38;;;3.00;99.90;;;;;;5022328;28;20447;-72
2023/12/06 11:50:28;;;;;;;27.90;18.48;;;3.00;99.90;;;;;;5021421;28;20525;-71
2023/12/06 11:52:55;;;;;;;4.30;3.95;;;3.00;99.90;;;;;;5023426;28;20026;-72
2023/12/06 11:55:23;;;;;;;6.93;5.82;;;3.00;99.90;;;;;;5025456;28;20100;-72
2023/12/06 11:58:02;;;;;;;5.40;4.25;;;3.00;99.90;;;;;;5021873;28;20030;-72
2023/12/06 12:00:29;;;;;;;4.97;4.00;;;3.00;99.90;;;;;;5022423;28;20030;-71
2023/12/06 12:02:56;;;;;;;5.95;5.30;;;3.10;99.90;;;;;;5021832;28;20037;-72
2023/12/06 12:05:24;;;;;;;3.88;3.45;;;3.10;99.90;;;;;;5019288;28;20462;-71
2023/12/06 12:07:49;;;;;;;5.88;5.32;;;3.10;99.90;;;;;;5026197;28;20450;-72
2023/12/06 12:10:16;;;;;;;5.47;4.88;;;3.10;99.90;;;;;;5028446;28;20109;-73
2023/12/06 12:12:42;;;;;;;3.90;2.95;;;3.00;99.90;;;;;;5016904;28;20041;-72
2023/12/06 12:15:08;;;;;;;3.08;2.70;;;3.00;99.90;;;;;;5022316;28;20022;-72
2023/12/06 12:17:35;;;;;;;7.25;4.68;;;3.10;99.90;;;;;;5027110;28;20026;-73
2023/12/06 12:20:03;;;;;;;5.32;4.82;;;3.00;99.90;;;;;;5027392;28;20456;-73
2023/12/06 12:22:29;;;;;;;;;;;3.00;99.90;;;;;;5020823;28;20030;-72
2023/12/06 12:24:55;;;;;;;2.88;2.53;;;3.00;99.90;;;;;;5021080;28;20445;-72
2023/12/06 12:27:21;;;;;;;3.33;2.28;;;3.00;99.90;;;;;;5017354;28;20052;-73
2023/12/06 12:29:54;;;;;;;3.25;2.83;;;3.10;99.90;;;;;;5013101;28;20080;-72
2023/12/06 12:32:20;;;;;;;2.60;2.38;;;3.00;99.90;;;;;;5020512;28;20394;-73
2023/12/06 12:34:46;;;;;;;2.20;2.03;;;3.00;99.90;;;;;;5020487;28;20056;-72
2023/12/06 12:37:11;;;;;;;3.22;2.88;;;3.10;99.90;;;;;;5021615;28;20029;-72
2023/12/06 12:39:37;;;;;;;3.33;3.03;;;3.00;99.90;;;;;;5030707;28;20018;-73
2023/12/06 12:42:05;;;;;;;2.55;2.28;;;3.00;99.90;;;;;;5023072;28;20075;-73
2023/12/06 12:44:31;;;;;;;8.70;3.35;;;3.00;99.90;;;;;;5021276;28;20113;-73
2023/12/06 12:46:57;;;;;;;2.65;2.30;;;3.00;99.90;;;;;;5024077;28;20029;-72
2023/12/06 12:49:23;;;;;;;3.83;2.97;;;3.00;99.90;;;;;;5019648;28;20441;-73
2023/12/06 12:51:49;;;;;;;2.60;2.40;;;3.00;99.90;;;;;;5023871;28;20022;-73
2023/12/06 12:54:16;;;;;;;4.13;3.00;;;3.00;99.90;;;;;;5021107;28;20116;-73
2023/12/06 12:56:43;;;;;;;2.25;2.15;;;3.00;99.90;;;;;;5010917;28;20030;-73
2023/12/06 12:59:09;;;;;;;2.95;2.65;;;3.00;99.90;;;;;;5019338;28;20091;-72
2023/12/06 13:01:34;;;;;;;2.60;2.40;;;3.00;99.90;;;;;;5021174;28;20537;-72
2023/12/06 13:04:01;;;;;;;2.38;2.17;;;3.00;99.90;;;;;;5018180;28;20042;-73
2023/12/06 13:06:28;;;;;;;2.47;2.00;;;3.00;99.90;;;;;;5017409;28;20020;-73
2023/12/06 13:08:57;;;;;;;2.03;1.92;;;3.10;99.90;;;;;;5018663;28;20693;-73
2023/12/06 13:11:23;;;;;;;2.50;2.30;;;3.10;99.90;;;;;;5024704;28;20009;-71
2023/12/06 13:13:49;;;;;;;2.47;2.20;;;3.10;99.90;;;;;;5025453;28;20048;-72
2023/12/06 13:16:15;;;;;;;2.00;1.90;;;3.10;99.90;;;;;;5022753;28;20022;-72